createdAt,value
2023-02-03T00:02:25.592Z,101601.03
2023-02-03T00:04:51.729Z,101612.38
2023-02-03T00:07:18.422Z,101607.91
2023-02-03T00:09:44.521Z,101606.31
2023-02-03T00:12:10.918Z,101602.47
2023-02-03T00:14:37.319Z,101598.72
2023-02-03T00:17:04.496Z,101595.03
2023-02-03T00:19:30.729Z,101594.97
2023-02-03T00:21:57.332Z,101588.69
2023-02-03T00:24:23.551Z,101596.84
2023-02-03T00:26:50.052Z,101587.47
2023-02-03T00:29:17.810Z,101588.63
2023-02-03T00:31:44.600Z,101587.31
2023-02-03T00:34:11.462Z,101579.31
2023-02-03T00:36:41.361Z,101579.00
2023-02-03T00:39:08.873Z,101574.75
2023-02-03T00:41:35.266Z,101570.75
2023-02-03T00:44:01.427Z,101550.53
2023-02-03T00:46:28.827Z,101561.56
2023-02-03T00:48:55.451Z,101550.41
2023-02-03T00:51:21.932Z,101550.41
2023-02-03T00:53:48.467Z,101542.72
2023-02-03T00:56:14.931Z,101534.13
2023-02-03T00:58:41.354Z,101532.09
2023-02-03T01:01:08.007Z,101525.81
2023-02-03T01:03:34.306Z,101522.72
2023-02-03T01:06:09.917Z,101513.78
2023-02-03T01:08:36.155Z,101512.75
2023-02-03T01:11:11.033Z,101515.75
2023-02-03T01:13:38.135Z,101509.59
2023-02-03T01:16:10.618Z,101501.88
2023-02-03T01:18:37.574Z,101488.84
2023-02-03T01:21:09.602Z,101477.13
2023-02-03T01:23:36.875Z,101466.59
2023-02-03T01:26:09.368Z,101463.28
2023-02-03T01:28:36.690Z,101456.47
2023-02-03T01:31:18.620Z,101454.41
2023-02-03T01:33:47.410Z,101447.19
2023-02-03T01:36:15.821Z,101455.78
2023-02-03T01:38:42.240Z,101431.09
2023-02-03T01:41:12.691Z,101438.69
2023-02-03T01:43:41.920Z,101442.56
2023-02-03T01:46:30.343Z,101438.03
2023-02-03T01:49:12.265Z,101439.19
2023-02-03T01:51:41.617Z,101455.66
2023-02-03T01:54:36.903Z,101465.91
2023-02-03T01:57:15.109Z,101467.66
2023-02-03T01:59:42.435Z,101457.81
2023-02-03T02:02:10.544Z,101448.31
2023-02-03T02:04:50.323Z,101442.47
2023-02-03T02:07:16.913Z,101442.25
2023-02-03T02:09:45.167Z,101435.91
2023-02-03T02:12:11.773Z,101430.84
2023-02-03T02:14:39.200Z,101436.91
2023-02-03T02:17:28.023Z,101424.41
2023-02-03T02:20:28.360Z,101414.59
2023-02-03T02:23:13.079Z,101407.75
2023-02-03T02:25:45.314Z,101397.88
2023-02-03T02:28:14.982Z,101395.41
2023-02-03T02:30:53.483Z,101373.75
2023-02-03T02:33:36.094Z,101366.44
2023-02-03T02:36:29.519Z,101371.47
2023-02-03T02:39:22.888Z,101343.97
2023-02-03T02:41:58.890Z,101321.81
2023-02-03T02:44:31.878Z,101324.78
2023-02-03T02:47:18.412Z,101311.47
2023-02-03T02:50:01.979Z,101318.63
2023-02-03T02:52:31.956Z,101309.84
2023-02-03T02:55:13.471Z,101302.75
2023-02-03T02:57:41.837Z,101302.09
2023-02-03T03:00:08.939Z,101301.91
2023-02-03T03:02:36.141Z,101307.59
2023-02-03T03:05:06.834Z,101298.81
2023-02-03T03:07:52.239Z,101302.84
2023-02-03T03:10:24.906Z,101311.41
2023-02-03T03:12:58.747Z,101295.78
2023-02-03T03:15:30.138Z,101294.56
2023-02-03T03:18:05.311Z,101289.22
2023-02-03T03:20:33.047Z,101284.81
2023-02-03T03:23:06.001Z,101269.03
2023-02-03T03:25:47.558Z,101270.31
2023-02-03T03:28:25.780Z,101265.84
2023-02-03T03:30:53.111Z,101265.59
2023-02-03T03:33:20.852Z,101266.38
2023-02-03T03:36:02.570Z,101260.50
2023-02-03T03:38:39.295Z,101251.94
2023-02-03T03:41:18.209Z,101254.63
2023-02-03T03:43:46.547Z,101245.56
2023-02-03T03:46:20.064Z,101246.69
2023-02-03T03:48:53.623Z,101233.16
2023-02-03T03:51:44.999Z,101228.56
2023-02-03T03:54:15.861Z,101217.88
2023-02-03T03:57:00.019Z,101212.78
2023-02-03T03:59:30.742Z,101193.34
2023-02-03T04:02:03.663Z,101206.31
2023-02-03T04:04:32.524Z,101192.16
2023-02-03T04:06:59.123Z,101189.72
2023-02-03T04:09:25.358Z,101182.94
2023-02-03T04:12:00.780Z,101177.66
2023-02-03T04:14:32.080Z,101175.50
2023-02-03T04:16:59.441Z,101176.97
2023-02-03T04:19:26.403Z,101160.94
2023-02-03T04:21:52.973Z,101149.78
2023-02-03T04:24:19.113Z,101152.97
2023-02-03T04:26:45.653Z,101141.91
2023-02-03T04:29:12.152Z,101149.44
2023-02-03T04:31:38.921Z,101159.63
2023-02-03T04:34:05.421Z,101137.28
2023-02-03T04:36:31.911Z,101134.16
2023-02-03T04:38:58.378Z,101134.50
2023-02-03T04:41:24.863Z,101130.78
2023-02-03T04:43:51.102Z,101117.59
2023-02-03T04:46:18.334Z,101119.13
2023-02-03T04:48:44.533Z,101107.13
2023-02-03T04:51:11.057Z,101096.50
2023-02-03T04:53:37.202Z,101092.19
2023-02-03T04:56:04.015Z,101089.81
2023-02-03T04:58:30.156Z,101087.63
2023-02-03T05:00:56.758Z,101093.19
2023-02-03T05:03:25.012Z,101090.59
2023-02-03T05:05:56.453Z,101084.38
2023-02-03T05:08:22.580Z,101074.09
2023-02-03T05:10:48.972Z,101068.53
2023-02-03T05:13:15.082Z,101067.75
2023-02-03T05:15:41.545Z,101038.25
2023-02-03T05:18:07.659Z,101052.06
2023-02-03T05:20:34.116Z,101037.25
2023-02-03T05:23:00.571Z,101040.69
2023-02-03T05:25:27.389Z,101023.31
2023-02-03T05:27:53.717Z,101023.06
2023-02-03T05:30:20.258Z,101022.44
2023-02-03T05:32:47.745Z,101024.66
2023-02-03T05:35:14.316Z,101014.78
2023-02-03T05:37:42.789Z,101011.34
2023-02-03T05:40:28.752Z,100997.41
2023-02-03T05:42:55.368Z,100989.88
2023-02-03T05:45:22.021Z,100980.03
2023-02-03T05:47:48.572Z,100965.91
2023-02-03T05:50:15.176Z,100974.13
2023-02-03T05:52:41.638Z,100966.94
2023-02-03T05:55:08.474Z,100968.00
2023-02-03T05:57:34.956Z,100968.34
2023-02-03T06:00:01.901Z,100960.59
2023-02-03T06:02:37.785Z,100948.16
2023-02-03T06:05:04.814Z,100960.50
2023-02-03T06:07:31.010Z,100949.50
2023-02-03T06:09:57.464Z,100936.22
2023-02-03T06:12:23.890Z,100937.34
2023-02-03T06:14:50.651Z,100942.50
2023-02-03T06:17:17.066Z,100942.28
2023-02-03T06:19:43.749Z,100939.31
2023-02-03T06:22:09.957Z,100938.38
2023-02-03T06:24:36.525Z,100929.06
2023-02-03T06:27:02.876Z,100918.75
2023-02-03T06:29:29.386Z,100914.34
2023-02-03T06:31:55.777Z,100897.56
2023-02-03T06:34:22.387Z,100893.44
2023-02-03T06:36:48.735Z,100888.38
2023-02-03T06:39:15.402Z,100880.56
2023-02-03T06:41:41.627Z,100874.50
2023-02-03T06:44:08.062Z,100864.44
2023-02-03T06:46:34.498Z,100855.50
2023-02-03T06:49:01.093Z,100856.34
2023-02-03T06:51:27.332Z,100843.22
2023-02-03T06:53:53.817Z,100829.38
2023-02-03T06:56:19.963Z,100816.44
2023-02-03T06:58:46.633Z,100811.50
2023-02-03T07:01:14.142Z,100805.03
2023-02-03T07:03:40.687Z,100800.75
2023-02-03T07:06:07.523Z,100800.84
2023-02-03T07:08:34.111Z,100801.41
2023-02-03T07:11:00.455Z,100783.31
2023-02-03T07:13:27.067Z,100769.19
2023-02-03T07:15:53.636Z,100758.16
2023-02-03T07:18:45.708Z,100742.66
2023-02-03T07:21:11.961Z,100734.47
2023-02-03T07:23:38.550Z,100726.59
2023-02-03T07:26:06.840Z,100725.84
2023-02-03T07:28:34.588Z,100722.09
2023-02-03T07:31:01.852Z,100706.66
2023-02-03T07:33:28.736Z,100706.66
2023-02-03T07:35:57.441Z,100702.59
2023-02-03T07:38:25.677Z,100691.88
2023-02-03T07:40:52.673Z,100682.22
2023-02-03T07:43:19.751Z,100678.69
2023-02-03T07:45:46.283Z,100677.22
2023-02-03T07:48:13.110Z,100668.53
2023-02-03T07:50:39.567Z,100661.25
2023-02-03T07:53:08.668Z,100663.63
2023-02-03T07:55:37.781Z,100657.81
2023-02-03T07:58:04.806Z,100643.69
2023-02-03T08:00:31.308Z,100631.59
2023-02-03T08:02:58.099Z,100617.16
2023-02-03T08:05:25.160Z,100611.47
2023-02-03T08:07:51.955Z,100598.50
2023-02-03T08:10:18.950Z,100585.97
2023-02-03T08:12:46.447Z,100575.59
2023-02-03T08:15:13.920Z,100573.03
2023-02-03T08:17:41.351Z,100563.06
2023-02-03T08:20:09.146Z,100560.50
2023-02-03T08:22:35.936Z,100554.59
2023-02-03T08:25:03.305Z,100551.06
2023-02-03T08:27:32.170Z,100542.72
2023-02-03T08:29:59.098Z,100530.63
2023-02-03T08:32:26.396Z,100530.41
2023-02-03T08:34:53.123Z,100514.13
2023-02-03T08:37:23.667Z,100521.50
2023-02-03T08:39:50.388Z,100503.50
2023-02-03T08:42:17.126Z,100499.78
2023-02-03T08:44:43.945Z,100490.41
2023-02-03T08:47:10.991Z,100479.69
2023-02-03T08:49:38.773Z,100463.94
2023-02-03T08:52:07.281Z,100457.09
2023-02-03T08:54:33.859Z,100451.50
2023-02-03T08:57:00.374Z,100446.78
2023-02-03T08:59:26.643Z,100441.47
2023-02-03T09:01:53.413Z,100434.69
2023-02-03T09:04:23.968Z,100421.97
2023-02-03T09:06:53.872Z,100420.69
2023-02-03T09:09:20.985Z,100406.72
2023-02-03T09:11:47.827Z,100406.09
2023-02-03T09:14:14.121Z,100405.00
2023-02-03T09:16:40.966Z,100399.81
2023-02-03T09:19:07.486Z,100401.53
2023-02-03T09:21:42.032Z,100374.97
2023-02-03T09:24:12.835Z,100379.25
2023-02-03T09:26:39.517Z,100349.78
2023-02-03T09:29:06.684Z,100341.00
2023-02-03T09:31:33.476Z,100338.78
2023-02-03T09:34:00.119Z,100335.25
2023-02-03T09:36:27.013Z,100325.34
2023-02-03T09:38:53.407Z,100319.84
2023-02-03T09:41:43.611Z,100309.00
2023-02-03T09:44:17.814Z,100297.59
2023-02-03T09:46:58.485Z,100278.34
2023-02-03T09:49:38.122Z,100262.56
2023-02-03T09:52:18.732Z,100267.91
2023-02-03T09:55:06.881Z,100247.94
2023-02-03T09:57:50.605Z,100227.97
2023-02-03T10:00:21.579Z,100213.13
2023-02-03T10:03:05.588Z,100198.16
2023-02-03T10:05:51.063Z,100177.09
2023-02-03T10:08:19.957Z,100173.69
2023-02-03T10:11:27.671Z,100156.53
2023-02-03T10:14:15.593Z,100152.91
2023-02-03T10:16:59.324Z,100147.66
2023-02-03T10:19:47.841Z,100135.75
2023-02-03T10:22:20.638Z,100128.44
2023-02-03T10:24:59.882Z,100106.00
2023-02-03T10:27:28.257Z,100093.00
2023-02-03T10:30:04.611Z,100092.38
2023-02-03T10:32:31.511Z,100082.63
2023-02-03T10:34:58.030Z,100063.00
2023-02-03T10:37:31.371Z,100052.88
2023-02-03T10:40:00.583Z,100054.56
2023-02-03T10:42:48.836Z,100042.84
2023-02-03T10:45:15.825Z,100037.25
2023-02-03T10:47:49.351Z,100028.44
2023-02-03T10:50:22.056Z,100012.81
2023-02-03T10:52:49.203Z,100008.94
2023-02-03T10:55:25.068Z,99993.59
2023-02-03T10:57:53.586Z,99987.91
2023-02-03T11:00:32.584Z,99974.72
2023-02-03T11:03:06.190Z,99968.97
2023-02-03T11:05:33.187Z,99970.16
2023-02-03T11:08:00.631Z,99965.56
2023-02-03T11:10:37.218Z,99961.94
2023-02-03T11:13:24.617Z,99948.72
2023-02-03T11:15:55.909Z,99941.97
2023-02-03T11:18:36.479Z,99925.88
2023-02-03T11:21:09.012Z,99923.06
2023-02-03T11:23:37.255Z,99906.53
2023-02-03T11:26:17.183Z,99889.72
2023-02-03T11:28:47.187Z,99894.38
2023-02-03T11:31:25.959Z,99881.84
2023-02-03T11:33:58.715Z,99876.47
2023-02-03T11:36:26.718Z,99872.25
2023-02-03T11:39:09.302Z,99866.75
2023-02-03T11:41:39.896Z,99861.53
2023-02-03T11:44:32.931Z,99868.31
2023-02-03T11:47:19.128Z,99862.81
2023-02-03T11:50:25.200Z,99860.13
2023-02-03T11:52:55.751Z,99845.16
2023-02-03T11:55:32.173Z,99830.88
2023-02-03T11:58:32.993Z,99835.28
2023-02-03T12:01:21.086Z,99827.38
2023-02-03T12:04:35.585Z,99833.44
2023-02-03T12:07:05.320Z,99825.00
2023-02-03T12:09:51.993Z,99816.34
2023-02-03T12:12:21.303Z,99813.94
2023-02-03T12:14:59.366Z,99810.69
2023-02-03T12:17:46.168Z,99800.47
2023-02-03T12:20:25.928Z,99805.41
2023-02-03T12:23:01.867Z,99813.16
2023-02-03T12:25:43.773Z,99806.78
2023-02-03T12:28:33.835Z,99798.00
2023-02-03T12:31:48.774Z,99786.44
2023-02-03T12:34:22.878Z,99774.59
2023-02-03T12:36:57.318Z,99768.50
2023-02-03T12:39:40.779Z,99779.28
2023-02-03T12:42:30.724Z,99783.41
2023-02-03T12:45:08.483Z,99769.25
2023-02-03T12:47:44.648Z,99782.88
2023-02-03T12:50:31.550Z,99776.34
2023-02-03T12:53:29.898Z,99779.31
2023-02-03T12:56:03.572Z,99793.78
2023-02-03T12:58:30.038Z,99796.44
2023-02-03T13:00:59.866Z,99791.41
2023-02-03T13:03:36.450Z,99795.53
2023-02-03T13:06:18.454Z,99795.81
2023-02-03T13:08:50.849Z,99788.13
2023-02-03T13:11:40.495Z,99782.91
2023-02-03T13:14:19.160Z,99791.59
2023-02-03T13:16:55.071Z,99792.16
2023-02-03T13:19:26.454Z,99787.22
2023-02-03T13:21:53.453Z,99793.16
2023-02-03T13:24:24.627Z,99804.94
2023-02-03T13:27:16.048Z,99804.09
2023-02-03T13:29:54.642Z,99809.63
2023-02-03T13:32:59.779Z,99814.09
2023-02-03T13:35:51.433Z,99807.78
2023-02-03T13:38:33.347Z,99818.06
2023-02-03T13:41:05.028Z,99838.25
2023-02-03T13:43:39.028Z,99836.16
2023-02-03T13:46:22.309Z,99831.91
2023-02-03T13:48:50.428Z,99827.19
2023-02-03T13:51:22.030Z,99838.56
2023-02-03T13:53:51.743Z,99845.78
2023-02-03T13:56:23.527Z,99859.66
2023-02-03T13:59:04.671Z,99878.31
2023-02-03T14:01:35.143Z,99881.16
2023-02-03T14:04:06.952Z,99898.72
2023-02-03T14:07:45.797Z,99919.84
2023-02-03T14:10:12.406Z,99897.69
2023-02-03T14:12:50.912Z,99929.06
2023-02-03T14:15:25.270Z,99923.03
2023-02-03T14:17:59.418Z,99937.47
2023-02-03T14:20:26.127Z,99931.03
2023-02-03T14:23:25.747Z,99928.34
2023-02-03T14:25:58.874Z,99926.06
2023-02-03T14:28:36.096Z,99936.78
2023-02-03T14:31:18.639Z,99930.44
2023-02-03T14:33:48.087Z,99920.94
2023-02-03T14:36:35.043Z,99903.59
2023-02-03T14:39:16.733Z,99907.25
2023-02-03T14:42:01.608Z,99913.03
2023-02-03T14:44:41.690Z,99901.31
2023-02-03T14:47:40.824Z,99897.09
2023-02-03T14:50:34.654Z,99906.00
2023-02-03T14:53:14.603Z,99920.28
2023-02-03T14:55:46.690Z,99920.56
2023-02-03T14:58:22.872Z,99919.69
2023-02-03T15:00:51.892Z,99916.41
2023-02-03T15:03:22.274Z,99920.94
2023-02-03T15:05:54.457Z,99929.44
2023-02-03T15:08:41.532Z,99933.13
2023-02-03T15:11:43.091Z,99932.00
2023-02-03T15:14:19.520Z,99936.38
2023-02-03T15:16:51.434Z,99936.66
2023-02-03T15:19:22.405Z,99948.56
2023-02-03T15:21:48.703Z,99948.00
2023-02-03T15:24:20.633Z,99948.59
2023-02-03T15:26:49.974Z,99947.63
2023-02-03T15:29:32.229Z,99961.78
2023-02-03T15:32:37.859Z,99964.19
2023-02-03T15:35:09.723Z,99971.41
2023-02-03T15:37:52.989Z,99969.88
2023-02-03T15:40:23.031Z,99990.38
2023-02-03T15:43:21.208Z,99993.66
2023-02-03T15:45:57.089Z,99993.06
2023-02-03T15:48:41.319Z,99996.88
2023-02-03T15:51:16.012Z,100000.56
2023-02-03T15:54:00.237Z,100012.75
2023-02-03T15:56:37.229Z,100024.06
2023-02-03T15:59:05.794Z,100032.66
2023-02-03T16:01:32.851Z,100022.31
2023-02-03T16:03:59.812Z,100023.88
2023-02-03T16:06:35.501Z,100013.84
2023-02-03T16:09:03.859Z,100019.22
2023-02-03T16:11:38.429Z,100025.19
2023-02-03T16:14:11.498Z,100025.03
2023-02-03T16:16:38.311Z,100024.19
2023-02-03T16:19:15.434Z,100025.88
2023-02-03T16:21:51.298Z,100023.50
2023-02-03T16:24:33.442Z,100019.09
2023-02-03T16:27:39.117Z,100016.44
2023-02-03T16:30:24.506Z,100027.75
2023-02-03T16:33:21.399Z,100018.69
2023-02-03T16:36:06.126Z,100020.69
2023-02-03T16:38:51.448Z,100027.47
2023-02-03T16:41:37.859Z,100026.91
2023-02-03T16:44:23.189Z,100032.16
2023-02-03T16:47:08.281Z,100037.34
2023-02-03T16:49:53.369Z,100036.50
2023-02-03T16:52:19.759Z,100040.03
2023-02-03T16:54:46.356Z,100047.56
2023-02-03T16:57:12.741Z,100033.13
2023-02-03T16:59:39.248Z,100038.19
2023-02-03T17:02:06.094Z,100048.97
2023-02-03T17:04:32.730Z,100050.38
2023-02-03T17:06:59.704Z,100066.53
2023-02-03T17:09:26.547Z,100069.66
2023-02-03T17:11:52.832Z,100050.53
2023-02-03T17:14:19.346Z,100053.50
2023-02-03T17:16:45.791Z,100060.44
2023-02-03T17:19:12.580Z,100057.19
2023-02-03T17:21:39.003Z,100055.63
2023-02-03T17:24:06.527Z,100052.94
2023-02-03T17:26:33.608Z,100064.41
2023-02-03T17:29:03.124Z,100063.72
2023-02-03T17:31:30.742Z,100072.19
2023-02-03T17:33:58.045Z,100073.75
2023-02-03T17:36:24.581Z,100075.59
2023-02-03T17:55:24.859Z,100093.53
2023-02-03T17:57:51.406Z,100103.59
2023-02-03T18:00:18.627Z,100089.72
2023-02-03T18:02:51.621Z,100094.81
2023-02-03T18:05:19.725Z,100097.22
2023-02-03T18:10:18.275Z,100098.78
2023-02-03T18:12:44.777Z,100104.16
2023-02-03T18:15:11.488Z,100105.84
2023-02-03T18:17:37.946Z,100101.06
2023-02-03T18:20:05.236Z,100096.25
2023-02-03T18:22:32.965Z,100093.69
2023-02-03T18:24:59.685Z,100105.03
2023-02-03T18:27:29.064Z,100094.53
2023-02-03T18:29:55.862Z,100093.00
2023-02-03T18:32:22.468Z,100105.56
2023-02-03T18:34:49.218Z,100101.06
2023-02-03T18:37:15.719Z,100106.16
2023-02-03T18:39:42.402Z,100097.38
2023-02-03T18:42:09.926Z,100100.78
2023-02-03T18:44:36.805Z,100093.41
2023-02-03T18:47:07.402Z,100106.00
2023-02-03T18:49:38.667Z,100111.09
2023-02-03T18:52:05.297Z,100110.41
2023-02-03T18:54:32.348Z,100122.41
2023-02-03T18:56:59.056Z,100110.97
2023-02-03T18:59:26.257Z,100108.97
2023-02-03T19:01:53.022Z,100107.44
2023-02-03T19:04:20.224Z,100107.13
2023-02-03T19:06:47.148Z,100107.28
2023-02-03T19:09:16.425Z,100102.75
2023-02-03T19:11:43.657Z,100113.94
2023-02-03T19:14:12.807Z,100105.75
2023-02-03T19:16:39.569Z,100109.97
2023-02-03T19:19:06.367Z,100105.88
2023-02-03T19:21:33.316Z,100117.34
2023-02-03T19:24:00.441Z,100119.19
2023-02-03T19:26:27.110Z,100120.28
2023-02-03T19:28:55.120Z,100116.06
2023-02-03T19:31:21.582Z,100130.22
2023-02-03T19:33:49.015Z,100131.34
2023-02-03T19:36:15.620Z,100126.69
2023-02-03T19:38:42.812Z,100127.13
2023-02-03T19:41:11.021Z,100130.94
2023-02-03T19:43:39.411Z,100138.72
2023-02-03T19:46:06.534Z,100138.69
2023-02-03T19:48:33.428Z,100132.78
2023-02-03T19:50:59.833Z,100130.94
2023-02-03T19:53:26.903Z,100131.50
2023-02-03T19:55:53.351Z,100138.16
2023-02-03T19:58:20.866Z,100129.22
2023-02-03T20:00:47.531Z,100121.72
2023-02-03T20:03:18.707Z,100124.69
2023-02-03T20:05:46.190Z,100132.19
2023-02-03T20:08:14.597Z,100130.94
2023-02-03T20:10:44.871Z,100131.91
2023-02-03T20:13:15.151Z,100122.56
2023-02-03T20:15:41.851Z,100135.59
2023-02-03T20:18:08.815Z,100129.81
2023-02-03T20:20:35.848Z,100126.69
2023-02-03T20:23:03.005Z,100141.56
2023-02-03T20:25:29.374Z,100142.41
2023-02-03T20:27:57.739Z,100147.06
2023-02-03T20:30:24.957Z,100150.16
2023-02-03T20:32:54.065Z,100150.75
2023-02-03T20:35:22.930Z,100147.06
2023-02-03T20:37:49.856Z,100144.69
2023-02-03T20:40:17.811Z,100153.84
2023-02-03T20:42:44.894Z,100152.84
2023-02-03T20:45:18.591Z,100147.16
2023-02-03T20:47:45.528Z,100148.44
2023-02-03T20:50:17.855Z,100149.69
2023-02-03T20:52:45.828Z,100151.97
2023-02-03T20:55:18.117Z,100150.09
2023-02-03T20:57:47.931Z,100146.56
2023-02-03T21:00:15.109Z,100150.63
2023-02-03T21:03:00.943Z,100159.53
2023-02-03T21:05:31.453Z,100167.84
2023-02-03T21:07:58.277Z,100169.31
2023-02-03T21:10:25.599Z,100174.19
2023-02-03T21:12:52.830Z,100180.66
2023-02-03T21:15:31.521Z,100191.44
2023-02-03T21:17:58.494Z,100190.84
2023-02-03T21:20:29.554Z,100193.88
2023-02-03T21:22:57.806Z,100189.09
2023-02-03T21:25:33.099Z,100193.88
2023-02-03T21:28:00.750Z,100194.88
2023-02-03T21:30:31.972Z,100201.88
2023-02-03T21:33:00.318Z,100185.69
2023-02-03T21:35:36.714Z,100185.50
2023-02-03T21:38:31.718Z,100207.16
2023-02-03T21:41:00.505Z,100206.81
2023-02-03T21:43:29.480Z,100216.16
2023-02-03T21:45:56.120Z,100218.56
2023-02-03T21:48:27.994Z,100220.06
2023-02-03T21:50:56.856Z,100223.00
2023-02-03T21:53:26.847Z,100213.97
2023-02-03T21:55:53.816Z,100209.59
2023-02-03T21:58:24.494Z,100224.25
2023-02-03T22:00:53.498Z,100210.84
2023-02-03T22:03:30.117Z,100219.00
2023-02-03T22:06:03.504Z,100232.19
2023-02-03T22:08:33.252Z,100223.72
2023-02-03T22:10:59.636Z,100235.63
2023-02-03T22:13:26.477Z,100221.28
2023-02-03T22:15:52.768Z,100238.50
2023-02-03T22:18:19.474Z,100238.63
2023-02-03T22:20:45.719Z,100251.16
2023-02-03T22:23:12.295Z,100255.31
2023-02-03T22:25:38.887Z,100261.44
2023-02-03T22:28:05.834Z,100249.47
2023-02-03T22:30:32.628Z,100250.09
2023-02-03T22:33:01.342Z,100242.28
2023-02-03T22:35:29.548Z,100242.91
2023-02-03T22:37:57.185Z,100255.56
2023-02-03T22:40:24.785Z,100257.28
2023-02-03T22:42:53.144Z,100249.97
2023-02-03T22:45:19.542Z,100258.00
2023-02-03T22:47:46.072Z,100267.75
2023-02-03T22:50:13.940Z,100278.00
2023-02-03T22:52:40.987Z,100280.91
2023-02-03T22:55:09.193Z,100276.03
2023-02-03T22:57:37.543Z,100285.06
2023-02-03T23:00:10.333Z,100282.00
2023-02-03T23:02:41.054Z,100293.59
2023-02-03T23:05:08.631Z,100306.00
2023-02-03T23:07:39.712Z,100304.56
2023-02-03T23:10:09.068Z,100306.25
2023-02-03T23:12:36.570Z,100319.19
2023-02-03T23:15:03.558Z,100310.88
2023-02-03T23:17:30.275Z,100315.91
2023-02-03T23:19:56.909Z,100314.06
2023-02-03T23:22:23.650Z,100332.09
2023-02-03T23:24:49.966Z,100321.69
2023-02-03T23:27:16.893Z,100336.22
2023-02-03T23:29:43.273Z,100345.81
2023-02-03T23:32:12.720Z,100348.03
2023-02-03T23:34:57.508Z,100351.78
2023-02-03T23:37:24.027Z,100357.13
2023-02-03T23:39:50.426Z,100374.75
2023-02-03T23:42:16.839Z,100387.66
2023-02-03T23:44:43.042Z,100398.38
2023-02-03T23:47:09.569Z,100400.28
2023-02-03T23:49:36.365Z,100449.00
2023-02-03T23:52:03.509Z,100463.25
2023-02-03T23:54:29.810Z,100475.13
2023-02-03T23:56:56.454Z,100527.88
2023-02-03T23:59:23.204Z,100534.69
